sensor_id;sensor_type;location;lat;lon;timestamp;temperature;humidity
65369;HTU21D;51970;53.484;49.488;2024-01-15T00:01:05;-16.24;59.84
65369;HTU21D;51970;53.484;49.488;2024-01-15T00:03:32;-16.00;59.69
65369;HTU21D;51970;53.484;49.488;2024-01-15T00:05:58;-16.24;58.95
65369;HTU21D;51970;53.484;49.488;2024-01-15T00:08:24;-16.28;58.95
65369;HTU21D;51970;53.484;49.488;2024-01-15T00:10:50;-16.28;58.58
65369;HTU21D;51970;53.484;49.488;2024-01-15T00:13:16;-16.40;58.91
65369;HTU21D;51970;53.484;49.488;2024-01-15T00:15:43;-16.42;59.06
65369;HTU21D;51970;53.484;49.488;2024-01-15T00:18:09;-16.37;59.35
65369;HTU21D;51970;53.484;49.488;2024-01-15T00:20:35;-16.36;59.19
65369;HTU21D;51970;53.484;49.488;2024-01-15T00:23:01;-16.39;59.36
65369;HTU21D;51970;53.484;49.488;2024-01-15T00:25:28;-16.38;58.70
65369;HTU21D;51970;53.484;49.488;2024-01-15T00:27:54;-16.44;58.70
65369;HTU21D;51970;53.484;49.488;2024-01-15T00:30:20;-16.37;58.81
65369;HTU21D;51970;53.484;49.488;2024-01-15T00:32:46;-16.32;58.54
65369;HTU21D;51970;53.484;49.488;2024-01-15T00:35:13;-16.41;58.38
65369;HTU21D;51970;53.484;49.488;2024-01-15T00:37:39;-16.41;58.47
65369;HTU21D;51970;53.484;49.488;2024-01-15T00:40:06;-16.33;58.07
65369;HTU21D;51970;53.484;49.488;2024-01-15T00:42:34;-16.42;58.35
65369;HTU21D;51970;53.484;49.488;2024-01-15T00:45:01;-16.42;58.03
65369;HTU21D;51970;53.484;49.488;2024-01-15T00:47:27;-16.43;58.06
65369;HTU21D;51970;53.484;49.488;2024-01-15T00:49:53;-16.38;58.06
65369;HTU21D;51970;53.484;49.488;2024-01-15T00:52:19;-16.35;57.56
65369;HTU21D;51970;53.484;49.488;2024-01-15T00:54:45;-16.20;57.23
65369;HTU21D;51970;53.484;49.488;2024-01-15T00:57:11;-16.22;57.22
65369;HTU21D;51970;53.484;49.488;2024-01-15T00:59:38;-16.34;56.98
65369;HTU21D;51970;53.484;49.488;2024-01-15T01:02:05;-16.34;57.20
65369;HTU21D;51970;53.484;49.488;2024-01-15T01:04:31;-16.37;56.91
65369;HTU21D;51970;53.484;49.488;2024-01-15T01:06:57;-16.46;56.88
65369;HTU21D;51970;53.484;49.488;2024-01-15T01:09:23;-16.50;57.22
65369;HTU21D;51970;53.484;49.488;2024-01-15T01:11:50;-16.52;57.65
65369;HTU21D;51970;53.484;49.488;2024-01-15T01:14:16;-16.35;57.45
65369;HTU21D;51970;53.484;49.488;2024-01-15T01:16:42;-16.54;57.72
65369;HTU21D;51970;53.484;49.488;2024-01-15T01:19:08;-16.54;57.79
65369;HTU21D;51970;53.484;49.488;2024-01-15T01:21:34;-16.65;57.99
65369;HTU21D;51970;53.484;49.488;2024-01-15T01:24:00;-16.61;58.53
65369;HTU21D;51970;53.484;49.488;2024-01-15T01:26:27;-16.58;59.03
65369;HTU21D;51970;53.484;49.488;2024-01-15T01:28:53;-16.57;59.19
65369;HTU21D;51970;53.484;49.488;2024-01-15T01:31:19;-16.52;59.61
65369;HTU21D;51970;53.484;49.488;2024-01-15T01:33:45;-16.43;59.56
65369;HTU21D;51970;53.484;49.488;2024-01-15T01:36:11;-16.49;59.35
65369;HTU21D;51970;53.484;49.488;2024-01-15T01:38:38;-16.64;59.49
65369;HTU21D;51970;53.484;49.488;2024-01-15T01:41:04;-16.49;59.80
65369;HTU21D;51970;53.484;49.488;2024-01-15T01:43:30;-16.54;60.37
65369;HTU21D;51970;53.484;49.488;2024-01-15T01:45:57;-16.73;61.27
65369;HTU21D;51970;53.484;49.488;2024-01-15T01:48:25;-16.58;61.30
65369;HTU21D;51970;53.484;49.488;2024-01-15T01:50:54;-16.67;61.04
65369;HTU21D;51970;53.484;49.488;2024-01-15T01:53:21;-16.70;60.86
65369;HTU21D;51970;53.484;49.488;2024-01-15T01:55:49;-16.88;61.00
65369;HTU21D;51970;53.484;49.488;2024-01-15T01:58:16;-16.74;60.88
65369;HTU21D;51970;53.484;49.488;2024-01-15T02:00:43;-16.80;61.27
65369;HTU21D;51970;53.484;49.488;2024-01-15T02:03:09;-16.78;61.35
65369;HTU21D;51970;53.484;49.488;2024-01-15T02:05:36;-16.72;60.83
65369;HTU21D;51970;53.484;49.488;2024-01-15T02:08:03;-16.76;60.95
65369;HTU21D;51970;53.484;49.488;2024-01-15T02:10:29;-16.91;61.18
65369;HTU21D;51970;53.484;49.488;2024-01-15T02:12:55;-16.91;61.75
65369;HTU21D;51970;53.484;49.488;2024-01-15T02:15:21;-16.79;61.99
65369;HTU21D;51970;53.484;49.488;2024-01-15T02:18:01;-16.59;62.46
65369;HTU21D;51970;53.484;49.488;2024-01-15T02:20:27;-16.62;62.78
65369;HTU21D;51970;53.484;49.488;2024-01-15T02:22:53;-16.79;62.94
65369;HTU21D;51970;53.484;49.488;2024-01-15T02:25:20;-16.78;63.08
65369;HTU21D;51970;53.484;49.488;2024-01-15T02:27:47;-16.97;63.31
65369;HTU21D;51970;53.484;49.488;2024-01-15T02:30:13;-16.67;63.69
65369;HTU21D;51970;53.484;49.488;2024-01-15T02:32:39;-16.72;64.07
65369;HTU21D;51970;53.484;49.488;2024-01-15T02:35:06;-16.64;64.17
65369;HTU21D;51970;53.484;49.488;2024-01-15T02:37:32;-16.63;64.23
65369;HTU21D;51970;53.484;49.488;2024-01-15T02:39:58;-16.67;64.37
65369;HTU21D;51970;53.484;49.488;2024-01-15T02:42:26;-16.64;64.55
65369;HTU21D;51970;53.484;49.488;2024-01-15T02:44:52;-16.70;64.56
65369;HTU21D;51970;53.484;49.488;2024-01-15T02:47:18;-16.71;64.77
65369;HTU21D;51970;53.484;49.488;2024-01-15T02:49:44;-16.73;65.16
65369;HTU21D;51970;53.484;49.488;2024-01-15T02:52:10;-16.76;65.09
65369;HTU21D;51970;53.484;49.488;2024-01-15T02:54:37;-16.73;65.53
65369;HTU21D;51970;53.484;49.488;2024-01-15T02:57:03;-16.74;65.93
65369;HTU21D;51970;53.484;49.488;2024-01-15T02:59:29;-16.55;66.32
65369;HTU21D;51970;53.484;49.488;2024-01-15T03:01:55;-16.71;66.63
65369;HTU21D;51970;53.484;49.488;2024-01-15T03:04:21;-16.82;66.78
65369;HTU21D;51970;53.484;49.488;2024-01-15T03:06:47;-16.73;66.86
65369;HTU21D;51970;53.484;49.488;2024-01-15T03:09:13;-16.73;66.87
65369;HTU21D;51970;53.484;49.488;2024-01-15T03:11:40;-16.68;66.90
65369;HTU21D;51970;53.484;49.488;2024-01-15T03:14:06;-16.58;67.04
65369;HTU21D;51970;53.484;49.488;2024-01-15T03:16:32;-16.54;66.99
65369;HTU21D;51970;53.484;49.488;2024-01-15T03:18:59;-16.22;67.42
65369;HTU21D;51970;53.484;49.488;2024-01-15T03:21:25;-16.52;68.36
65369;HTU21D;51970;53.484;49.488;2024-01-15T03:23:51;-16.36;68.32
65369;HTU21D;51970;53.484;49.488;2024-01-15T03:26:17;-16.11;67.87
65369;HTU21D;51970;53.484;49.488;2024-01-15T03:28:43;-16.05;68.01
65369;HTU21D;51970;53.484;49.488;2024-01-15T03:31:09;-16.20;67.81
65369;HTU21D;51970;53.484;49.488;2024-01-15T03:33:35;-16.11;67.71
65369;HTU21D;51970;53.484;49.488;2024-01-15T03:36:02;-16.04;68.65
65369;HTU21D;51970;53.484;49.488;2024-01-15T03:38:28;-15.85;68.37
65369;HTU21D;51970;53.484;49.488;2024-01-15T03:40:55;-15.99;68.99
65369;HTU21D;51970;53.484;49.488;2024-01-15T03:43:21;-15.95;68.84
65369;HTU21D;51970;53.484;49.488;2024-01-15T03:45:47;-15.92;68.75
65369;HTU21D;51970;53.484;49.488;2024-01-15T03:48:13;-15.81;68.60
65369;HTU21D;51970;53.484;49.488;2024-01-15T03:50:39;-15.80;68.94
65369;HTU21D;51970;53.484;49.488;2024-01-15T03:53:05;-15.76;70.34
65369;HTU21D;51970;53.484;49.488;2024-01-15T03:55:32;-15.58;70.90
65369;HTU21D;51970;53.484;49.488;2024-01-15T03:57:58;-15.30;70.75
65369;HTU21D;51970;53.484;49.488;2024-01-15T04:00:24;-15.23;71.51
65369;HTU21D;51970;53.484;49.488;2024-01-15T04:02:50;-15.21;71.06
65369;HTU21D;51970;53.484;49.488;2024-01-15T04:05:17;-15.17;70.56
65369;HTU21D;51970;53.484;49.488;2024-01-15T04:07:43;-15.16;69.89
65369;HTU21D;51970;53.484;49.488;2024-01-15T04:10:09;-15.04;70.53
65369;HTU21D;51970;53.484;49.488;2024-01-15T04:12:35;-14.99;70.72
65369;HTU21D;51970;53.484;49.488;2024-01-15T04:15:01;-14.93;70.38
65369;HTU21D;51970;53.484;49.488;2024-01-15T04:17:27;-14.67;69.54
65369;HTU21D;51970;53.484;49.488;2024-01-15T04:19:54;-14.92;69.13
65369;HTU21D;51970;53.484;49.488;2024-01-15T04:22:21;-14.85;68.91
65369;HTU21D;51970;53.484;49.488;2024-01-15T04:24:47;-14.60;67.84
65369;HTU21D;51970;53.484;49.488;2024-01-15T04:27:13;-14.60;66.94
65369;HTU21D;51970;53.484;49.488;2024-01-15T04:29:39;-14.14;66.89
65369;HTU21D;51970;53.484;49.488;2024-01-15T04:32:05;-14.21;66.67
65369;HTU21D;51970;53.484;49.488;2024-01-15T04:34:32;-14.25;65.80
65369;HTU21D;51970;53.484;49.488;2024-01-15T04:36:58;-14.20;65.53
65369;HTU21D;51970;53.484;49.488;2024-01-15T04:39:25;-14.18;65.75
65369;HTU21D;51970;53.484;49.488;2024-01-15T04:41:51;-14.06;65.99
65369;HTU21D;51970;53.484;49.488;2024-01-15T04:44:17;-13.96;65.39
65369;HTU21D;51970;53.484;49.488;2024-01-15T04:46:43;-13.90;65.37
65369;HTU21D;51970;53.484;49.488;2024-01-15T04:49:10;-13.47;68.81
65369;HTU21D;51970;53.484;49.488;2024-01-15T04:51:36;-13.19;67.26
65369;HTU21D;51970;53.484;49.488;2024-01-15T04:54:02;-13.33;64.84
65369;HTU21D;51970;53.484;49.488;2024-01-15T04:56:28;-13.45;64.79
65369;HTU21D;51970;53.484;49.488;2024-01-15T04:58:54;-13.42;64.92
65369;HTU21D;51970;53.484;49.488;2024-01-15T05:01:20;-13.17;66.02
65369;HTU21D;51970;53.484;49.488;2024-01-15T05:03:47;-13.06;63.93
65369;HTU21D;51970;53.484;49.488;2024-01-15T05:06:13;-12.99;63.86
65369;HTU21D;51970;53.484;49.488;2024-01-15T05:08:39;-13.12;62.81
65369;HTU21D;51970;53.484;49.488;2024-01-15T05:11:05;-13.14;62.37
65369;HTU21D;51970;53.484;49.488;2024-01-15T05:13:31;-13.11;61.78
65369;HTU21D;51970;53.484;49.488;2024-01-15T05:15:57;-13.12;62.18
65369;HTU21D;51970;53.484;49.488;2024-01-15T05:18:23;-12.93;62.68
65369;HTU21D;51970;53.484;49.488;2024-01-15T05:20:50;-13.09;62.44
65369;HTU21D;51970;53.484;49.488;2024-01-15T05:23:18;-13.07;62.21
65369;HTU21D;51970;53.484;49.488;2024-01-15T05:25:44;-12.98;62.08
65369;HTU21D;51970;53.484;49.488;2024-01-15T05:28:10;-12.92;61.61
65369;HTU21D;51970;53.484;49.488;2024-01-15T05:30:36;-12.87;61.46
65369;HTU21D;51970;53.484;49.488;2024-01-15T05:33:02;-12.64;61.47
65369;HTU21D;51970;53.484;49.488;2024-01-15T05:35:29;-12.80;61.44
65369;HTU21D;51970;53.484;49.488;2024-01-15T05:37:55;-12.62;61.42
65369;HTU21D;51970;53.484;49.488;2024-01-15T05:40:22;-12.71;61.83
65369;HTU21D;51970;53.484;49.488;2024-01-15T05:42:48;-12.49;62.56
65369;HTU21D;51970;53.484;49.488;2024-01-15T05:45:14;-12.63;62.98
65369;HTU21D;51970;53.484;49.488;2024-01-15T05:47:40;-12.58;63.25
65369;HTU21D;51970;53.484;49.488;2024-01-15T05:50:06;-12.54;64.02
65369;HTU21D;51970;53.484;49.488;2024-01-15T05:52:32;-12.45;64.98
65369;HTU21D;51970;53.484;49.488;2024-01-15T05:54:59;-12.51;64.59
65369;HTU21D;51970;53.484;49.488;2024-01-15T05:57:26;-12.51;65.30
65369;HTU21D;51970;53.484;49.488;2024-01-15T05:59:52;-12.53;66.23
65369;HTU21D;51970;53.484;49.488;2024-01-15T06:02:18;-12.51;66.91
65369;HTU21D;51970;53.484;49.488;2024-01-15T06:04:44;-12.47;67.53
65369;HTU21D;51970;53.484;49.488;2024-01-15T06:07:10;-12.48;67.52
65369;HTU21D;51970;53.484;49.488;2024-01-15T06:09:37;-12.56;67.50
65369;HTU21D;51970;53.484;49.488;2024-01-15T06:12:05;-12.58;67.99
65369;HTU21D;51970;53.484;49.488;2024-01-15T06:14:31;-12.59;67.98
65369;HTU21D;51970;53.484;49.488;2024-01-15T06:16:57;-12.49;67.88
65369;HTU21D;51970;53.484;49.488;2024-01-15T06:19:23;-12.37;67.81
65369;HTU21D;51970;53.484;49.488;2024-01-15T06:21:49;-12.23;67.78
65369;HTU21D;51970;53.484;49.488;2024-01-15T06:24:15;-12.25;67.99
65369;HTU21D;51970;53.484;49.488;2024-01-15T06:26:43;-12.18;68.05
65369;HTU21D;51970;53.484;49.488;2024-01-15T06:29:09;-12.21;68.46
65369;HTU21D;51970;53.484;49.488;2024-01-15T06:31:35;-12.28;68.16
65369;HTU21D;51970;53.484;49.488;2024-01-15T06:34:02;-11.75;67.99
65369;HTU21D;51970;53.484;49.488;2024-01-15T06:36:28;-12.10;67.75
65369;HTU21D;51970;53.484;49.488;2024-01-15T06:38:55;-12.14;67.62
65369;HTU21D;51970;53.484;49.488;2024-01-15T06:41:22;-12.10;67.88
65369;HTU21D;51970;53.484;49.488;2024-01-15T06:43:48;-11.95;67.17
65369;HTU21D;51970;53.484;49.488;2024-01-15T06:46:23;-11.92;67.88
65369;HTU21D;51970;53.484;49.488;2024-01-15T06:48:49;-12.13;67.79
65369;HTU21D;51970;53.484;49.488;2024-01-15T06:51:16;-12.25;68.49
65369;HTU21D;51970;53.484;49.488;2024-01-15T06:53:42;-12.34;69.16
65369;HTU21D;51970;53.484;49.488;2024-01-15T06:56:08;-12.38;70.28
65369;HTU21D;51970;53.484;49.488;2024-01-15T06:58:34;-12.17;70.14
65369;HTU21D;51970;53.484;49.488;2024-01-15T07:01:00;-12.01;70.69
65369;HTU21D;51970;53.484;49.488;2024-01-15T07:03:27;-11.86;69.95
65369;HTU21D;51970;53.484;49.488;2024-01-15T07:05:53;-11.68;69.36
65369;HTU21D;51970;53.484;49.488;2024-01-15T07:08:19;-11.65;69.20
65369;HTU21D;51970;53.484;49.488;2024-01-15T07:10:46;-11.61;68.94
65369;HTU21D;51970;53.484;49.488;2024-01-15T07:13:12;-11.78;69.32
65369;HTU21D;51970;53.484;49.488;2024-01-15T07:15:38;-11.77;69.79
65369;HTU21D;51970;53.484;49.488;2024-01-15T07:18:04;-11.64;70.04
65369;HTU21D;51970;53.484;49.488;2024-01-15T07:20:31;-11.66;70.35
65369;HTU21D;51970;53.484;49.488;2024-01-15T07:22:57;-11.75;70.93
65369;HTU21D;51970;53.484;49.488;2024-01-15T07:25:23;-11.80;71.10
65369;HTU21D;51970;53.484;49.488;2024-01-15T07:27:52;-11.78;71.69
65369;HTU21D;51970;53.484;49.488;2024-01-15T07:30:19;-11.78;71.73
65369;HTU21D;51970;53.484;49.488;2024-01-15T07:32:47;-11.70;71.82
65369;HTU21D;51970;53.484;49.488;2024-01-15T07:35:15;-11.67;71.80
65369;HTU21D;51970;53.484;49.488;2024-01-15T07:37:41;-11.66;71.67
65369;HTU21D;51970;53.484;49.488;2024-01-15T07:40:08;-11.58;71.95
65369;HTU21D;51970;53.484;49.488;2024-01-15T07:42:35;-11.52;71.94
65369;HTU21D;51970;53.484;49.488;2024-01-15T07:45:01;-11.58;72.08
65369;HTU21D;51970;53.484;49.488;2024-01-15T07:47:27;-11.46;72.42
65369;HTU21D;51970;53.484;49.488;2024-01-15T07:49:53;-11.38;72.20
65369;HTU21D;51970;53.484;49.488;2024-01-15T07:52:20;-11.29;71.67
65369;HTU21D;51970;53.484;49.488;2024-01-15T07:54:46;-11.15;70.69
65369;HTU21D;51970;53.484;49.488;2024-01-15T07:57:12;-11.08;70.39
65369;HTU21D;51970;53.484;49.488;2024-01-15T07:59:38;-11.05;69.95
65369;HTU21D;51970;53.484;49.488;2024-01-15T08:02:06;-10.96;69.89
65369;HTU21D;51970;53.484;49.488;2024-01-15T08:04:32;-10.89;69.65
65369;HTU21D;51970;53.484;49.488;2024-01-15T08:06:58;-10.92;70.10
65369;HTU21D;51970;53.484;49.488;2024-01-15T08:09:24;-10.72;70.61
65369;HTU21D;51970;53.484;49.488;2024-01-15T08:11:50;-10.42;69.31
65369;HTU21D;51970;53.484;49.488;2024-01-15T08:14:17;-10.41;69.15
65369;HTU21D;51970;53.484;49.488;2024-01-15T08:16:44;-10.42;68.71
65369;HTU21D;51970;53.484;49.488;2024-01-15T08:19:09;-10.41;68.33
65369;HTU21D;51970;53.484;49.488;2024-01-15T08:21:36;-10.27;69.30
65369;HTU21D;51970;53.484;49.488;2024-01-15T08:24:02;-10.44;70.52
65369;HTU21D;51970;53.484;49.488;2024-01-15T08:26:29;-10.41;70.41
65369;HTU21D;51970;53.484;49.488;2024-01-15T08:28:55;-10.58;71.99
65369;HTU21D;51970;53.484;49.488;2024-01-15T08:31:21;-10.60;72.85
65369;HTU21D;51970;53.484;49.488;2024-01-15T08:33:48;-10.38;73.44
65369;HTU21D;51970;53.484;49.488;2024-01-15T08:36:14;-10.17;72.74
65369;HTU21D;51970;53.484;49.488;2024-01-15T08:38:41;-10.00;70.87
65369;HTU21D;51970;53.484;49.488;2024-01-15T08:41:07;-9.86;69.44
65369;HTU21D;51970;53.484;49.488;2024-01-15T08:43:34;-9.89;68.58
65369;HTU21D;51970;53.484;49.488;2024-01-15T08:46:01;-9.86;68.70
65369;HTU21D;51970;53.484;49.488;2024-01-15T08:48:27;-9.99;68.84
65369;HTU21D;51970;53.484;49.488;2024-01-15T08:50:54;-10.16;71.09
65369;HTU21D;51970;53.484;49.488;2024-01-15T08:53:20;-10.17;71.24
65369;HTU21D;51970;53.484;49.488;2024-01-15T08:55:47;-10.12;71.54
65369;HTU21D;51970;53.484;49.488;2024-01-15T08:58:13;-9.98;70.75
65369;HTU21D;51970;53.484;49.488;2024-01-15T09:00:40;-9.96;70.68
65369;HTU21D;51970;53.484;49.488;2024-01-15T09:03:06;-9.90;70.74
65369;HTU21D;51970;53.484;49.488;2024-01-15T09:05:32;-9.76;70.80
65369;HTU21D;51970;53.484;49.488;2024-01-15T09:07:58;-9.90;71.13
65369;HTU21D;51970;53.484;49.488;2024-01-15T09:13:09;-9.78;71.52
65369;HTU21D;51970;53.484;49.488;2024-01-15T09:15:35;-9.61;71.31
65369;HTU21D;51970;53.484;49.488;2024-01-15T09:18:01;-9.52;70.58
65369;HTU21D;51970;53.484;49.488;2024-01-15T09:20:28;-9.56;70.57
65369;HTU21D;51970;53.484;49.488;2024-01-15T09:22:54;-9.57;70.94
65369;HTU21D;51970;53.484;49.488;2024-01-15T09:25:20;-9.57;70.86
65369;HTU21D;51970;53.484;49.488;2024-01-15T09:27:46;-9.82;72.79
65369;HTU21D;51970;53.484;49.488;2024-01-15T09:30:12;-9.76;72.23
65369;HTU21D;51970;53.484;49.488;2024-01-15T09:32:39;-9.63;71.45
65369;HTU21D;51970;53.484;49.488;2024-01-15T09:35:05;-9.97;73.26
65369;HTU21D;51970;53.484;49.488;2024-01-15T09:37:32;-9.93;73.31
65369;HTU21D;51970;53.484;49.488;2024-01-15T09:39:59;-9.87;73.65
65369;HTU21D;51970;53.484;49.488;2024-01-15T09:42:25;-9.87;73.65
65369;HTU21D;51970;53.484;49.488;2024-01-15T09:44:52;-9.81;72.80
65369;HTU21D;51970;53.484;49.488;2024-01-15T09:47:19;-9.63;72.32
65369;HTU21D;51970;53.484;49.488;2024-01-15T09:49:47;-9.48;72.71
65369;HTU21D;51970;53.484;49.488;2024-01-15T09:52:14;-9.40;72.00
65369;HTU21D;51970;53.484;49.488;2024-01-15T09:54:43;-9.17;71.62
65369;HTU21D;51970;53.484;49.488;2024-01-15T09:57:10;-9.58;72.86
65369;HTU21D;51970;53.484;49.488;2024-01-15T09:59:37;-9.77;75.14
65369;HTU21D;51970;53.484;49.488;2024-01-15T10:02:05;-9.75;75.58
65369;HTU21D;51970;53.484;49.488;2024-01-15T10:04:32;-9.64;74.60
65369;HTU21D;51970;53.484;49.488;2024-01-15T10:07:00;-9.37;73.68
65369;HTU21D;51970;53.484;49.488;2024-01-15T10:09:26;-9.48;73.57
65369;HTU21D;51970;53.484;49.488;2024-01-15T10:11:53;-9.47;72.27
65369;HTU21D;51970;53.484;49.488;2024-01-15T10:14:19;-9.66;72.38
65369;HTU21D;51970;53.484;49.488;2024-01-15T10:16:46;-9.69;72.22
65369;HTU21D;51970;53.484;49.488;2024-01-15T10:19:12;-9.61;72.28
65369;HTU21D;51970;53.484;49.488;2024-01-15T10:21:38;-9.73;72.62
65369;HTU21D;51970;53.484;49.488;2024-01-15T10:24:04;-9.72;73.16
65369;HTU21D;51970;53.484;49.488;2024-01-15T10:26:31;-9.54;72.98
65369;HTU21D;51970;53.484;49.488;2024-01-15T10:29:01;-9.84;73.01
65369;HTU21D;51970;53.484;49.488;2024-01-15T10:31:27;-9.89;74.15
65369;HTU21D;51970;53.484;49.488;2024-01-15T10:33:54;-9.78;74.39
65369;HTU21D;51970;53.484;49.488;2024-01-15T10:36:23;-9.62;73.73
65369;HTU21D;51970;53.484;49.488;2024-01-15T10:38:49;-9.43;73.85
65369;HTU21D;51970;53.484;49.488;2024-01-15T10:41:15;-9.38;73.24
65369;HTU21D;51970;53.484;49.488;2024-01-15T10:43:41;-9.53;73.72
65369;HTU21D;51970;53.484;49.488;2024-01-15T10:46:08;-9.68;75.95
65369;HTU21D;51970;53.484;49.488;2024-01-15T10:48:34;-9.53;75.88
65369;HTU21D;51970;53.484;49.488;2024-01-15T10:51:01;-9.52;75.00
65369;HTU21D;51970;53.484;49.488;2024-01-15T10:53:39;-9.28;74.60
65369;HTU21D;51970;53.484;49.488;2024-01-15T10:56:06;-9.60;74.56
65369;HTU21D;51970;53.484;49.488;2024-01-15T10:58:33;-9.58;74.77
65369;HTU21D;51970;53.484;49.488;2024-01-15T11:01:02;-9.61;75.18
65369;HTU21D;51970;53.484;49.488;2024-01-15T11:03:28;-9.68;76.06
65369;HTU21D;51970;53.484;49.488;2024-01-15T11:05:55;-9.64;75.76
65369;HTU21D;51970;53.484;49.488;2024-01-15T11:08:21;-9.73;76.27
65369;HTU21D;51970;53.484;49.488;2024-01-15T11:10:51;-9.61;76.47
65369;HTU21D;51970;53.484;49.488;2024-01-15T11:13:24;-9.68;76.34
65369;HTU21D;51970;53.484;49.488;2024-01-15T11:16:10;-9.63;75.87
65369;HTU21D;51970;53.484;49.488;2024-01-15T11:18:43;-9.62;76.20
65369;HTU21D;51970;53.484;49.488;2024-01-15T11:29:00;-9.25;76.31
65369;HTU21D;51970;53.484;49.488;2024-01-15T11:34:02;-9.67;76.35
65369;HTU21D;51970;53.484;49.488;2024-01-15T11:41:57;-9.85;77.24
65369;HTU21D;51970;53.484;49.488;2024-01-15T11:44:23;-9.81;78.40
65369;HTU21D;51970;53.484;49.488;2024-01-15T11:47:00;-9.86;77.56
65369;HTU21D;51970;53.484;49.488;2024-01-15T11:52:35;-9.90;77.68
65369;HTU21D;51970;53.484;49.488;2024-01-15T11:55:22;-9.90;77.50
65369;HTU21D;51970;53.484;49.488;2024-01-15T11:57:52;-9.75;77.15
65369;HTU21D;51970;53.484;49.488;2024-01-15T12:00:21;-9.89;77.45
65369;HTU21D;51970;53.484;49.488;2024-01-15T12:02:48;-9.94;76.66
65369;HTU21D;51970;53.484;49.488;2024-01-15T12:05:17;-9.51;76.57
65369;HTU21D;51970;53.484;49.488;2024-01-15T12:07:44;-9.94;76.82
65369;HTU21D;51970;53.484;49.488;2024-01-15T12:10:12;-9.97;76.44
65369;HTU21D;51970;53.484;49.488;2024-01-15T12:15:10;-9.85;75.61
65369;HTU21D;51970;53.484;49.488;2024-01-15T12:17:36;-9.77;75.67
65369;HTU21D;51970;53.484;49.488;2024-01-15T12:20:03;-9.82;75.84
65369;HTU21D;51970;53.484;49.488;2024-01-15T12:22:29;-9.86;75.53
65369;HTU21D;51970;53.484;49.488;2024-01-15T12:24:55;-9.85;75.57
65369;HTU21D;51970;53.484;49.488;2024-01-15T12:27:21;-9.88;76.04
65369;HTU21D;51970;53.484;49.488;2024-01-15T12:29:48;-9.85;75.97
65369;HTU21D;51970;53.484;49.488;2024-01-15T12:32:14;-9.81;76.00
65369;HTU21D;51970;53.484;49.488;2024-01-15T12:34:40;-9.82;75.13
65369;HTU21D;51970;53.484;49.488;2024-01-15T12:37:07;-9.77;75.18
65369;HTU21D;51970;53.484;49.488;2024-01-15T12:39:34;-9.81;74.59
65369;HTU21D;51970;53.484;49.488;2024-01-15T12:42:02;-9.85;74.71
65369;HTU21D;51970;53.484;49.488;2024-01-15T12:44:28;-9.72;75.31
65369;HTU21D;51970;53.484;49.488;2024-01-15T12:46:54;-9.88;75.15
65369;HTU21D;51970;53.484;49.488;2024-01-15T12:49:21;-9.90;74.66
65369;HTU21D;51970;53.484;49.488;2024-01-15T12:51:56;-9.82;75.30
65369;HTU21D;51970;53.484;49.488;2024-01-15T12:54:23;-9.76;75.85
65369;HTU21D;51970;53.484;49.488;2024-01-15T12:56:50;-9.77;75.60
65369;HTU21D;51970;53.484;49.488;2024-01-15T12:59:17;-9.75;75.40
65369;HTU21D;51970;53.484;49.488;2024-01-15T13:01:44;-9.00;75.54
65369;HTU21D;51970;53.484;49.488;2024-01-15T13:04:10;-9.79;75.44
65369;HTU21D;51970;53.484;49.488;2024-01-15T13:06:37;-9.79;75.76
65369;HTU21D;51970;53.484;49.488;2024-01-15T13:09:03;-9.73;75.79
65369;HTU21D;51970;53.484;49.488;2024-01-15T13:11:32;-9.66;76.26
65369;HTU21D;51970;53.484;49.488;2024-01-15T13:14:00;-9.62;75.76
65369;HTU21D;51970;53.484;49.488;2024-01-15T13:16:26;-9.70;76.53
65369;HTU21D;51970;53.484;49.488;2024-01-15T13:18:55;-9.67;76.37
65369;HTU21D;51970;53.484;49.488;2024-01-15T13:21:22;-9.61;76.21
65369;HTU21D;51970;53.484;49.488;2024-01-15T13:23:48;-9.63;76.75
65369;HTU21D;51970;53.484;49.488;2024-01-15T13:26:15;-9.62;76.21
65369;HTU21D;51970;53.484;49.488;2024-01-15T13:28:41;-9.62;76.53
65369;HTU21D;51970;53.484;49.488;2024-01-15T13:31:07;-9.62;76.57
65369;HTU21D;51970;53.484;49.488;2024-01-15T13:33:34;-9.62;76.10
65369;HTU21D;51970;53.484;49.488;2024-01-15T13:36:01;-9.59;76.53
65369;HTU21D;51970;53.484;49.488;2024-01-15T13:38:28;-9.56;76.54
65369;HTU21D;51970;53.484;49.488;2024-01-15T13:41:00;-9.48;75.89
65369;HTU21D;51970;53.484;49.488;2024-01-15T13:43:26;-9.49;76.59
65369;HTU21D;51970;53.484;49.488;2024-01-15T13:45:52;-9.43;76.02
65369;HTU21D;51970;53.484;49.488;2024-01-15T13:48:20;-9.43;76.20
65369;HTU21D;51970;53.484;49.488;2024-01-15T13:50:46;-9.49;75.72
65369;HTU21D;51970;53.484;49.488;2024-01-15T13:53:12;-9.51;75.62
65369;HTU21D;51970;53.484;49.488;2024-01-15T13:55:38;-9.53;75.94
65369;HTU21D;51970;53.484;49.488;2024-01-15T13:58:05;-9.54;76.47
65369;HTU21D;51970;53.484;49.488;2024-01-15T14:00:32;-9.51;76.66
65369;HTU21D;51970;53.484;49.488;2024-01-15T14:02:59;-9.47;76.62
65369;HTU21D;51970;53.484;49.488;2024-01-15T14:05:25;-9.45;77.33
65369;HTU21D;51970;53.484;49.488;2024-01-15T14:07:52;-9.45;77.20
65369;HTU21D;51970;53.484;49.488;2024-01-15T14:10:18;-9.43;78.24
65369;HTU21D;51970;53.484;49.488;2024-01-15T14:12:44;-9.40;77.96
65369;HTU21D;51970;53.484;49.488;2024-01-15T14:15:10;-9.42;78.03
65369;HTU21D;51970;53.484;49.488;2024-01-15T14:17:36;-9.44;78.21
65369;HTU21D;51970;53.484;49.488;2024-01-15T14:20:04;-9.41;78.18
65369;HTU21D;51970;53.484;49.488;2024-01-15T14:22:31;-9.34;77.69
65369;HTU21D;51970;53.484;49.488;2024-01-15T14:24:57;-9.29;77.47
65369;HTU21D;51970;53.484;49.488;2024-01-15T14:27:23;-9.32;77.76
65369;HTU21D;51970;53.484;49.488;2024-01-15T14:29:49;-9.28;78.08
65369;HTU21D;51970;53.484;49.488;2024-01-15T14:32:15;-9.26;78.42
65369;HTU21D;51970;53.484;49.488;2024-01-15T14:34:41;-9.20;78.79
65369;HTU21D;51970;53.484;49.488;2024-01-15T14:37:08;-9.20;78.54
65369;HTU21D;51970;53.484;49.488;2024-01-15T14:39:34;-9.22;78.64
65369;HTU21D;51970;53.484;49.488;2024-01-15T14:42:01;-9.18;78.79
65369;HTU21D;51970;53.484;49.488;2024-01-15T14:44:27;-9.11;78.44
65369;HTU21D;51970;53.484;49.488;2024-01-15T14:46:56;-9.08;78.46
65369;HTU21D;51970;53.484;49.488;2024-01-15T14:49:24;-9.09;78.66
65369;HTU21D;51970;53.484;49.488;2024-01-15T14:51:51;-9.09;78.95
65369;HTU21D;51970;53.484;49.488;2024-01-15T14:54:17;-9.05;79.39
65369;HTU21D;51970;53.484;49.488;2024-01-15T14:56:43;-9.05;79.71
65369;HTU21D;51970;53.484;49.488;2024-01-15T14:59:10;-8.99;79.68
65369;HTU21D;51970;53.484;49.488;2024-01-15T15:01:36;-8.97;79.34
65369;HTU21D;51970;53.484;49.488;2024-01-15T15:04:02;-8.94;79.88
65369;HTU21D;51970;53.484;49.488;2024-01-15T15:06:29;-8.88;79.78
65369;HTU21D;51970;53.484;49.488;2024-01-15T15:08:56;-8.90;79.85
65369;HTU21D;51970;53.484;49.488;2024-01-15T15:11:26;-8.87;79.79
65369;HTU21D;51970;53.484;49.488;2024-01-15T15:13:52;-8.88;79.60